Willow City, North Dakota
Current Conditions -  °F | °C
As of 2:35 AM on Saturday 20 Dec 2014 (Local Time) from KRUG Reporting Station
Haze Haze  
Wind Chill: 23°   Ceiling: 100
Heat Index: 23°   Visibility: 1mi
Dew Point: 23°   Wind: 0mph
Humidity: 100%   Direction: NA
Pressure: 29.95"   Gusts: NA
Location:  48.6°N, 100.29°W
Report Text: KRUG 200835Z AUTO 00000KT 1SM BR OVC001 M05/M05 A2995 RMK AO2
Loading
Personal Weather Stations






























Interactive Weather Map New forecast layout! Learn more

10-Day Weather Forecast

Advertisements
Track Severe Weather on mobile